sensor_id;sensor_type;location;lat;lon;timestamp;P1;durP1;ratioP1;P2;durP2;ratioP2
35646;SDS011;28680;45.642;13.756;2023-02-28T00:44:49;8.63;;;5.43;;
35646;SDS011;28680;45.642;13.756;2023-02-28T00:47:15;8.38;;;5.03;;
35646;SDS011;28680;45.642;13.756;2023-02-28T00:49:42;10.05;;;5.95;;
35646;SDS011;28680;45.642;13.756;2023-02-28T00:52:08;11.75;;;5.78;;
35646;SDS011;28680;45.642;13.756;2023-02-28T00:54:34;9.65;;;5.82;;
35646;SDS011;28680;45.642;13.756;2023-02-28T00:57:00;10.18;;;5.88;;
35646;SDS011;28680;45.642;13.756;2023-02-28T00:59:26;10.57;;;5.65;;
35646;SDS011;28680;45.642;13.756;2023-02-28T01:01:52;9.57;;;5.80;;
35646;SDS011;28680;45.642;13.756;2023-02-28T01:04:17;10.50;;;5.47;;
35646;SDS011;28680;45.642;13.756;2023-02-28T01:06:43;7.78;;;5.03;;
35646;SDS011;28680;45.642;13.756;2023-02-28T01:09:10;9.68;;;5.72;;
35646;SDS011;28680;45.642;13.756;2023-02-28T01:11:36;10.15;;;5.93;;
35646;SDS011;28680;45.642;13.756;2023-02-28T01:14:03;10.98;;;5.60;;
35646;SDS011;28680;45.642;13.756;2023-02-28T01:16:29;10.38;;;5.90;;
35646;SDS011;28680;45.642;13.756;2023-02-28T01:18:55;9.75;;;5.85;;
35646;SDS011;28680;45.642;13.756;2023-02-28T01:21:21;10.15;;;5.68;;
35646;SDS011;28680;45.642;13.756;2023-02-28T01:23:48;11.73;;;6.28;;
35646;SDS011;28680;45.642;13.756;2023-02-28T01:26:20;9.15;;;4.97;;
35646;SDS011;28680;45.642;13.756;2023-02-28T01:28:47;12.32;;;6.60;;
35646;SDS011;28680;45.642;13.756;2023-02-28T01:31:15;9.95;;;5.95;;
35646;SDS011;28680;45.642;13.756;2023-02-28T01:33:43;12.27;;;5.95;;
35646;SDS011;28680;45.642;13.756;2023-02-28T01:38:41;9.45;;;5.18;;
35646;SDS011;28680;45.642;13.756;2023-02-28T01:41:08;12.07;;;6.45;;
35646;SDS011;28680;45.642;13.756;2023-02-28T01:46:08;11.68;;;5.90;;
35646;SDS011;28680;45.642;13.756;2023-02-28T01:48:36;10.80;;;6.05;;
35646;SDS011;28680;45.642;13.756;2023-02-28T01:51:29;11.90;;;5.68;;
35646;SDS011;28680;45.642;13.756;2023-02-28T01:54:16;10.73;;;5.55;;
35646;SDS011;28680;45.642;13.756;2023-02-28T01:56:49;11.15;;;5.47;;
35646;SDS011;28680;45.642;13.756;2023-02-28T01:59:27;11.57;;;5.97;;
35646;SDS011;28680;45.642;13.756;2023-02-28T02:02:09;10.02;;;5.50;;
35646;SDS011;28680;45.642;13.756;2023-02-28T02:04:41;11.93;;;6.22;;
35646;SDS011;28680;45.642;13.756;2023-02-28T02:07:21;8.23;;;4.63;;
35646;SDS011;28680;45.642;13.756;2023-02-28T02:09:50;10.23;;;5.72;;
35646;SDS011;28680;45.642;13.756;2023-02-28T02:12:31;9.32;;;5.25;;
35646;SDS011;28680;45.642;13.756;2023-02-28T02:17:42;11.80;;;5.68;;
35646;SDS011;28680;45.642;13.756;2023-02-28T02:23:39;8.85;;;4.93;;
35646;SDS011;28680;45.642;13.756;2023-02-28T02:29:32;11.10;;;4.68;;
35646;SDS011;28680;45.642;13.756;2023-02-28T02:35:54;8.68;;;5.20;;
35646;SDS011;28680;45.642;13.756;2023-02-28T02:41:19;11.63;;;5.80;;
35646;SDS011;28680;45.642;13.756;2023-02-28T02:44:20;10.45;;;5.30;;
35646;SDS011;28680;45.642;13.756;2023-02-28T02:46:55;9.20;;;4.95;;
35646;SDS011;28680;45.642;13.756;2023-02-28T02:49:30;9.48;;;5.10;;
35646;SDS011;28680;45.642;13.756;2023-02-28T02:52:01;7.57;;;4.47;;
35646;SDS011;28680;45.642;13.756;2023-02-28T02:58:50;8.90;;;5.18;;
35646;SDS011;28680;45.642;13.756;2023-02-28T03:01:22;8.27;;;4.80;;
35646;SDS011;28680;45.642;13.756;2023-02-28T03:04:01;7.47;;;4.70;;
35646;SDS011;28680;45.642;13.756;2023-02-28T03:06:32;7.25;;;4.50;;
35646;SDS011;28680;45.642;13.756;2023-02-28T03:08:59;8.82;;;4.80;;
35646;SDS011;28680;45.642;13.756;2023-02-28T03:11:25;8.50;;;4.88;;
35646;SDS011;28680;45.642;13.756;2023-02-28T03:16:51;8.43;;;5.00;;
35646;SDS011;28680;45.642;13.756;2023-02-28T03:20:12;6.30;;;4.40;;
35646;SDS011;28680;45.642;13.756;2023-02-28T03:23:07;7.50;;;4.25;;
35646;SDS011;28680;45.642;13.756;2023-02-28T03:26:20;9.38;;;4.72;;
35646;SDS011;28680;45.642;13.756;2023-02-28T03:29:00;7.30;;;4.38;;
35646;SDS011;28680;45.642;13.756;2023-02-28T03:31:49;6.75;;;4.47;;
35646;SDS011;28680;45.642;13.756;2023-02-28T03:34:29;7.03;;;4.07;;
35646;SDS011;28680;45.642;13.756;2023-02-28T03:37:18;7.85;;;4.60;;
35646;SDS011;28680;45.642;13.756;2023-02-28T03:39:50;8.18;;;4.57;;
35646;SDS011;28680;45.642;13.756;2023-02-28T03:42:59;6.65;;;4.00;;
35646;SDS011;28680;45.642;13.756;2023-02-28T03:45:33;6.45;;;3.97;;
35646;SDS011;28680;45.642;13.756;2023-02-28T03:48:12;9.13;;;4.25;;
35646;SDS011;28680;45.642;13.756;2023-02-28T03:50:46;7.47;;;4.20;;
35646;SDS011;28680;45.642;13.756;2023-02-28T03:53:22;7.35;;;4.22;;
35646;SDS011;28680;45.642;13.756;2023-02-28T03:56:07;7.50;;;3.90;;
35646;SDS011;28680;45.642;13.756;2023-02-28T04:01:53;7.28;;;4.35;;
35646;SDS011;28680;45.642;13.756;2023-02-28T04:04:20;7.40;;;4.00;;
35646;SDS011;28680;45.642;13.756;2023-02-28T04:06:46;6.57;;;4.20;;
35646;SDS011;28680;45.642;13.756;2023-02-28T04:09:25;6.05;;;3.92;;
35646;SDS011;28680;45.642;13.756;2023-02-28T04:11:57;7.43;;;3.95;;
35646;SDS011;28680;45.642;13.756;2023-02-28T04:14:37;7.13;;;4.30;;
35646;SDS011;28680;45.642;13.756;2023-02-28T04:17:02;8.27;;;4.20;;
35646;SDS011;28680;45.642;13.756;2023-02-28T04:19:28;4.70;;;3.55;;
35646;SDS011;28680;45.642;13.756;2023-02-28T04:21:54;7.75;;;4.03;;
35646;SDS011;28680;45.642;13.756;2023-02-28T04:24:21;7.38;;;3.50;;
35646;SDS011;28680;45.642;13.756;2023-02-28T04:26:51;6.75;;;4.10;;
35646;SDS011;28680;45.642;13.756;2023-02-28T04:32:48;6.50;;;4.38;;
35646;SDS011;28680;45.642;13.756;2023-02-28T04:35:14;6.38;;;3.60;;
35646;SDS011;28680;45.642;13.756;2023-02-28T04:37:40;6.93;;;4.25;;
35646;SDS011;28680;45.642;13.756;2023-02-28T04:40:07;6.85;;;4.30;;
35646;SDS011;28680;45.642;13.756;2023-02-28T04:42:33;5.03;;;3.80;;
35646;SDS011;28680;45.642;13.756;2023-02-28T04:45:03;7.43;;;4.50;;
35646;SDS011;28680;45.642;13.756;2023-02-28T04:47:30;5.25;;;4.10;;
35646;SDS011;28680;45.642;13.756;2023-02-28T04:49:56;7.50;;;4.07;;
35646;SDS011;28680;45.642;13.756;2023-02-28T04:52:22;6.18;;;4.15;;
35646;SDS011;28680;45.642;13.756;2023-02-28T04:54:47;6.63;;;4.03;;
35646;SDS011;28680;45.642;13.756;2023-02-28T04:57:14;6.60;;;3.92;;
35646;SDS011;28680;45.642;13.756;2023-02-28T04:59:40;6.50;;;3.95;;
35646;SDS011;28680;45.642;13.756;2023-02-28T05:02:06;7.18;;;3.97;;
35646;SDS011;28680;45.642;13.756;2023-02-28T05:04:35;8.75;;;4.80;;
35646;SDS011;28680;45.642;13.756;2023-02-28T05:07:02;8.93;;;4.40;;
35646;SDS011;28680;45.642;13.756;2023-02-28T05:09:28;7.43;;;4.38;;
35646;SDS011;28680;45.642;13.756;2023-02-28T05:11:54;8.02;;;4.25;;
35646;SDS011;28680;45.642;13.756;2023-02-28T05:14:21;8.65;;;4.07;;
35646;SDS011;28680;45.642;13.756;2023-02-28T05:16:47;6.90;;;4.40;;
35646;SDS011;28680;45.642;13.756;2023-02-28T05:19:13;7.97;;;4.35;;
35646;SDS011;28680;45.642;13.756;2023-02-28T05:21:48;7.00;;;4.50;;
35646;SDS011;28680;45.642;13.756;2023-02-28T05:24:17;6.18;;;4.05;;
35646;SDS011;28680;45.642;13.756;2023-02-28T05:26:48;9.60;;;4.93;;
35646;SDS011;28680;45.642;13.756;2023-02-28T05:29:16;6.70;;;4.68;;
35646;SDS011;28680;45.642;13.756;2023-02-28T05:31:42;7.18;;;4.45;;
35646;SDS011;28680;45.642;13.756;2023-02-28T05:34:08;8.70;;;4.70;;
35646;SDS011;28680;45.642;13.756;2023-02-28T05:36:37;7.55;;;4.40;;
35646;SDS011;28680;45.642;13.756;2023-02-28T05:39:05;7.57;;;4.90;;
35646;SDS011;28680;45.642;13.756;2023-02-28T05:41:37;7.95;;;4.80;;
35646;SDS011;28680;45.642;13.756;2023-02-28T05:44:05;6.03;;;4.30;;
35646;SDS011;28680;45.642;13.756;2023-02-28T05:46:31;7.80;;;4.55;;
35646;SDS011;28680;45.642;13.756;2023-02-28T05:48:56;6.20;;;4.35;;
35646;SDS011;28680;45.642;13.756;2023-02-28T05:51:25;5.88;;;3.92;;
35646;SDS011;28680;45.642;13.756;2023-02-28T05:53:51;6.43;;;4.45;;
35646;SDS011;28680;45.642;13.756;2023-02-28T05:56:16;8.07;;;4.20;;
35646;SDS011;28680;45.642;13.756;2023-02-28T05:58:42;7.35;;;4.10;;
35646;SDS011;28680;45.642;13.756;2023-02-28T06:03:46;6.47;;;3.70;;
35646;SDS011;28680;45.642;13.756;2023-02-28T06:06:12;6.50;;;4.30;;
35646;SDS011;28680;45.642;13.756;2023-02-28T06:08:38;6.57;;;4.13;;
35646;SDS011;28680;45.642;13.756;2023-02-28T06:11:04;5.65;;;3.83;;
35646;SDS011;28680;45.642;13.756;2023-02-28T06:13:31;5.82;;;4.00;;
35646;SDS011;28680;45.642;13.756;2023-02-28T06:16:00;6.72;;;4.13;;
35646;SDS011;28680;45.642;13.756;2023-02-28T06:18:26;7.38;;;3.97;;
35646;SDS011;28680;45.642;13.756;2023-02-28T06:20:55;7.88;;;4.10;;
35646;SDS011;28680;45.642;13.756;2023-02-28T06:23:21;8.13;;;4.57;;
35646;SDS011;28680;45.642;13.756;2023-02-28T06:25:47;5.00;;;3.67;;
35646;SDS011;28680;45.642;13.756;2023-02-28T06:28:14;9.35;;;4.03;;
35646;SDS011;28680;45.642;13.756;2023-02-28T06:30:40;6.70;;;3.90;;
35646;SDS011;28680;45.642;13.756;2023-02-28T06:33:07;6.13;;;3.90;;
35646;SDS011;28680;45.642;13.756;2023-02-28T06:35:33;8.13;;;4.57;;
35646;SDS011;28680;45.642;13.756;2023-02-28T06:37:59;7.43;;;4.43;;
35646;SDS011;28680;45.642;13.756;2023-02-28T06:40:25;4.75;;;2.75;;
35646;SDS011;28680;45.642;13.756;2023-02-28T06:42:51;7.20;;;4.00;;
35646;SDS011;28680;45.642;13.756;2023-02-28T06:45:17;7.13;;;3.63;;
35646;SDS011;28680;45.642;13.756;2023-02-28T06:47:43;8.00;;;4.40;;
35646;SDS011;28680;45.642;13.756;2023-02-28T06:50:10;6.53;;;3.88;;
35646;SDS011;28680;45.642;13.756;2023-02-28T06:52:37;8.32;;;5.43;;
35646;SDS011;28680;45.642;13.756;2023-02-28T06:55:05;6.65;;;3.78;;
35646;SDS011;28680;45.642;13.756;2023-02-28T06:57:32;7.68;;;4.38;;
35646;SDS011;28680;45.642;13.756;2023-02-28T07:00:02;6.40;;;4.20;;
35646;SDS011;28680;45.642;13.756;2023-02-28T07:02:35;8.30;;;4.78;;
35646;SDS011;28680;45.642;13.756;2023-02-28T07:05:02;9.70;;;4.40;;
35646;SDS011;28680;45.642;13.756;2023-02-28T07:07:36;8.63;;;4.55;;
35646;SDS011;28680;45.642;13.756;2023-02-28T07:10:05;6.05;;;3.72;;
35646;SDS011;28680;45.642;13.756;2023-02-28T07:12:32;5.82;;;3.53;;
35646;SDS011;28680;45.642;13.756;2023-02-28T07:14:58;9.82;;;3.70;;
35646;SDS011;28680;45.642;13.756;2023-02-28T07:17:23;13.13;;;4.68;;
35646;SDS011;28680;45.642;13.756;2023-02-28T07:19:49;8.50;;;5.13;;
35646;SDS011;28680;45.642;13.756;2023-02-28T07:22:15;8.23;;;4.85;;
35646;SDS011;28680;45.642;13.756;2023-02-28T07:24:41;8.45;;;4.68;;
35646;SDS011;28680;45.642;13.756;2023-02-28T07:27:07;7.68;;;4.78;;
35646;SDS011;28680;45.642;13.756;2023-02-28T07:29:33;7.30;;;3.75;;
35646;SDS011;28680;45.642;13.756;2023-02-28T07:31:59;6.10;;;3.17;;
35646;SDS011;28680;45.642;13.756;2023-02-28T07:34:25;7.03;;;3.97;;
35646;SDS011;28680;45.642;13.756;2023-02-28T07:36:52;6.65;;;4.38;;
35646;SDS011;28680;45.642;13.756;2023-02-28T07:39:19;7.55;;;3.80;;
35646;SDS011;28680;45.642;13.756;2023-02-28T07:41:46;6.93;;;4.00;;
35646;SDS011;28680;45.642;13.756;2023-02-28T07:44:12;6.95;;;4.25;;
35646;SDS011;28680;45.642;13.756;2023-02-28T07:46:39;8.07;;;3.30;;
35646;SDS011;28680;45.642;13.756;2023-02-28T07:49:05;8.13;;;4.40;;
35646;SDS011;28680;45.642;13.756;2023-02-28T07:51:31;7.18;;;3.47;;
35646;SDS011;28680;45.642;13.756;2023-02-28T07:53:57;8.82;;;3.90;;
35646;SDS011;28680;45.642;13.756;2023-02-28T07:56:24;7.55;;;4.50;;
35646;SDS011;28680;45.642;13.756;2023-02-28T07:58:49;9.75;;;4.50;;
35646;SDS011;28680;45.642;13.756;2023-02-28T08:01:15;5.93;;;3.90;;
35646;SDS011;28680;45.642;13.756;2023-02-28T08:03:42;6.70;;;3.83;;
35646;SDS011;28680;45.642;13.756;2023-02-28T08:06:11;7.20;;;4.10;;
35646;SDS011;28680;45.642;13.756;2023-02-28T08:08:46;8.95;;;3.90;;
35646;SDS011;28680;45.642;13.756;2023-02-28T08:11:13;6.43;;;3.58;;
35646;SDS011;28680;45.642;13.756;2023-02-28T08:13:40;7.47;;;3.80;;
35646;SDS011;28680;45.642;13.756;2023-02-28T08:16:07;5.88;;;3.38;;
35646;SDS011;28680;45.642;13.756;2023-02-28T08:18:33;5.82;;;3.50;;
35646;SDS011;28680;45.642;13.756;2023-02-28T08:21:04;7.47;;;2.75;;
35646;SDS011;28680;45.642;13.756;2023-02-28T08:23:32;5.65;;;3.20;;
35646;SDS011;28680;45.642;13.756;2023-02-28T08:25:58;5.90;;;3.33;;
35646;SDS011;28680;45.642;13.756;2023-02-28T08:28:24;4.25;;;2.90;;
35646;SDS011;28680;45.642;13.756;2023-02-28T08:30:50;5.68;;;3.30;;
35646;SDS011;28680;45.642;13.756;2023-02-28T08:33:16;6.38;;;3.13;;
35646;SDS011;28680;45.642;13.756;2023-02-28T08:35:42;7.07;;;2.85;;
35646;SDS011;28680;45.642;13.756;2023-02-28T08:38:08;6.60;;;3.63;;
35646;SDS011;28680;45.642;13.756;2023-02-28T08:40:33;7.05;;;2.88;;
35646;SDS011;28680;45.642;13.756;2023-02-28T08:42:59;5.00;;;3.28;;
35646;SDS011;28680;45.642;13.756;2023-02-28T08:45:25;6.03;;;3.03;;
35646;SDS011;28680;45.642;13.756;2023-02-28T08:47:51;5.10;;;2.70;;
35646;SDS011;28680;45.642;13.756;2023-02-28T08:50:18;6.38;;;2.90;;
35646;SDS011;28680;45.642;13.756;2023-02-28T08:52:44;5.55;;;2.65;;
35646;SDS011;28680;45.642;13.756;2023-02-28T08:55:10;4.53;;;2.90;;
35646;SDS011;28680;45.642;13.756;2023-02-28T08:57:36;4.60;;;2.67;;
35646;SDS011;28680;45.642;13.756;2023-02-28T09:00:02;5.10;;;2.92;;
35646;SDS011;28680;45.642;13.756;2023-02-28T09:02:30;6.05;;;3.00;;
35646;SDS011;28680;45.642;13.756;2023-02-28T09:04:56;4.97;;;3.00;;
35646;SDS011;28680;45.642;13.756;2023-02-28T09:07:23;4.80;;;2.85;;
35646;SDS011;28680;45.642;13.756;2023-02-28T09:09:50;5.13;;;2.90;;
35646;SDS011;28680;45.642;13.756;2023-02-28T09:12:22;3.95;;;2.80;;
35646;SDS011;28680;45.642;13.756;2023-02-28T09:14:50;5.78;;;2.75;;
35646;SDS011;28680;45.642;13.756;2023-02-28T09:17:16;4.60;;;2.50;;
35646;SDS011;28680;45.642;13.756;2023-02-28T09:19:42;4.55;;;2.88;;
35646;SDS011;28680;45.642;13.756;2023-02-28T09:22:13;4.88;;;2.50;;
35646;SDS011;28680;45.642;13.756;2023-02-28T09:24:39;5.00;;;2.50;;
35646;SDS011;28680;45.642;13.756;2023-02-28T09:27:05;4.03;;;2.97;;
35646;SDS011;28680;45.642;13.756;2023-02-28T09:29:32;5.20;;;3.17;;
35646;SDS011;28680;45.642;13.756;2023-02-28T09:31:59;6.47;;;2.75;;
35646;SDS011;28680;45.642;13.756;2023-02-28T09:34:26;3.78;;;2.20;;
35646;SDS011;28680;45.642;13.756;2023-02-28T09:36:55;5.18;;;3.30;;
35646;SDS011;28680;45.642;13.756;2023-02-28T09:39:24;4.20;;;2.90;;
35646;SDS011;28680;45.642;13.756;2023-02-28T09:41:56;4.53;;;2.78;;
35646;SDS011;28680;45.642;13.756;2023-02-28T09:44:30;5.75;;;2.63;;
35646;SDS011;28680;45.642;13.756;2023-02-28T09:47:30;6.10;;;2.75;;
35646;SDS011;28680;45.642;13.756;2023-02-28T09:49:54;4.38;;;2.30;;
35646;SDS011;28680;45.642;13.756;2023-02-28T09:52:30;4.82;;;2.97;;
35646;SDS011;28680;45.642;13.756;2023-02-28T09:58:20;5.38;;;1.98;;
35646;SDS011;28680;45.642;13.756;2023-02-28T10:01:18;3.67;;;2.28;;
35646;SDS011;28680;45.642;13.756;2023-02-28T10:10:29;4.25;;;2.72;;
35646;SDS011;28680;45.642;13.756;2023-02-28T10:13:26;7.53;;;3.03;;
35646;SDS011;28680;45.642;13.756;2023-02-28T10:21:38;4.45;;;2.85;;
35646;SDS011;28680;45.642;13.756;2023-02-28T10:27:14;4.65;;;2.70;;
35646;SDS011;28680;45.642;13.756;2023-02-28T10:29:47;4.35;;;2.88;;
35646;SDS011;28680;45.642;13.756;2023-02-28T10:32:20;3.78;;;2.53;;
35646;SDS011;28680;45.642;13.756;2023-02-28T10:37:33;4.10;;;2.80;;
35646;SDS011;28680;45.642;13.756;2023-02-28T10:40:04;5.38;;;2.80;;
35646;SDS011;28680;45.642;13.756;2023-02-28T10:45:29;5.43;;;3.28;;
35646;SDS011;28680;45.642;13.756;2023-02-28T10:48:06;3.97;;;2.92;;
35646;SDS011;28680;45.642;13.756;2023-02-28T10:50:52;4.82;;;3.13;;
35646;SDS011;28680;45.642;13.756;2023-02-28T10:58:58;3.00;;;2.00;;
35646;SDS011;28680;45.642;13.756;2023-02-28T11:06:48;6.30;;;3.38;;
35646;SDS011;28680;45.642;13.756;2023-02-28T11:09:27;5.43;;;3.17;;
35646;SDS011;28680;45.642;13.756;2023-02-28T11:12:00;4.65;;;2.80;;
35646;SDS011;28680;45.642;13.756;2023-02-28T11:14:37;4.40;;;2.67;;
35646;SDS011;28680;45.642;13.756;2023-02-28T11:17:21;5.95;;;3.60;;
35646;SDS011;28680;45.642;13.756;2023-02-28T11:19:59;5.88;;;3.70;;
35646;SDS011;28680;45.642;13.756;2023-02-28T11:22:32;5.70;;;4.13;;
35646;SDS011;28680;45.642;13.756;2023-02-28T11:25:07;6.93;;;4.15;;
35646;SDS011;28680;45.642;13.756;2023-02-28T11:27:50;5.70;;;4.00;;
35646;SDS011;28680;45.642;13.756;2023-02-28T11:32:56;8.77;;;5.25;;
35646;SDS011;28680;45.642;13.756;2023-02-28T11:35:33;4.90;;;3.78;;
35646;SDS011;28680;45.642;13.756;2023-02-28T11:38:05;6.28;;;4.30;;
35646;SDS011;28680;45.642;13.756;2023-02-28T11:40:53;7.75;;;4.53;;
35646;SDS011;28680;45.642;13.756;2023-02-28T12:03:27;7.50;;;4.82;;
35646;SDS011;28680;45.642;13.756;2023-02-28T12:12:00;6.63;;;4.45;;
35646;SDS011;28680;45.642;13.756;2023-02-28T12:17:35;4.75;;;3.15;;
35646;SDS011;28680;45.642;13.756;2023-02-28T12:23:21;6.00;;;3.65;;
35646;SDS011;28680;45.642;13.756;2023-02-28T12:26:40;7.03;;;3.78;;
35646;SDS011;28680;45.642;13.756;2023-02-28T12:31:42;9.93;;;5.70;;
35646;SDS011;28680;45.642;13.756;2023-02-28T12:40:23;8.02;;;5.20;;
35646;SDS011;28680;45.642;13.756;2023-02-28T12:42:58;8.35;;;5.00;;
35646;SDS011;28680;45.642;13.756;2023-02-28T12:48:29;6.40;;;3.90;;
35646;SDS011;28680;45.642;13.756;2023-02-28T12:51:11;10.00;;;6.55;;
35646;SDS011;28680;45.642;13.756;2023-02-28T12:56:44;8.88;;;5.97;;
35646;SDS011;28680;45.642;13.756;2023-02-28T12:59:44;10.85;;;6.88;;
35646;SDS011;28680;45.642;13.756;2023-02-28T13:23:02;8.95;;;5.45;;
35646;SDS011;28680;45.642;13.756;2023-02-28T13:28:00;10.95;;;6.40;;
35646;SDS011;28680;45.642;13.756;2023-02-28T13:38:43;11.52;;;6.95;;
35646;SDS011;28680;45.642;13.756;2023-02-28T13:46:26;10.88;;;6.57;;
35646;SDS011;28680;45.642;13.756;2023-02-28T13:48:52;8.27;;;5.50;;
35646;SDS011;28680;45.642;13.756;2023-02-28T13:54:18;11.10;;;6.57;;
35646;SDS011;28680;45.642;13.756;2023-02-28T14:06:31;8.52;;;5.40;;
35646;SDS011;28680;45.642;13.756;2023-02-28T14:09:00;11.75;;;7.55;;
35646;SDS011;28680;45.642;13.756;2023-02-28T14:11:37;12.02;;;7.32;;
35646;SDS011;28680;45.642;13.756;2023-02-28T14:14:06;9.68;;;5.43;;
35646;SDS011;28680;45.642;13.756;2023-02-28T14:16:36;10.55;;;6.70;;
35646;SDS011;28680;45.642;13.756;2023-02-28T14:19:26;9.85;;;6.30;;
35646;SDS011;28680;45.642;13.756;2023-02-28T14:27:44;10.93;;;7.45;;
35646;SDS011;28680;45.642;13.756;2023-02-28T14:36:35;9.50;;;5.80;;
35646;SDS011;28680;45.642;13.756;2023-02-28T14:39:05;10.88;;;6.93;;
35646;SDS011;28680;45.642;13.756;2023-02-28T14:41:38;10.13;;;6.57;;
35646;SDS011;28680;45.642;13.756;2023-02-28T14:46:50;13.38;;;6.90;;
35646;SDS011;28680;45.642;13.756;2023-02-28T14:49:21;8.48;;;6.13;;
35646;SDS011;28680;45.642;13.756;2023-02-28T14:55:12;9.18;;;5.80;;
35646;SDS011;28680;45.642;13.756;2023-02-28T14:57:59;7.93;;;5.88;;
35646;SDS011;28680;45.642;13.756;2023-02-28T15:00:31;11.23;;;6.95;;
35646;SDS011;28680;45.642;13.756;2023-02-28T15:03:17;7.88;;;5.70;;
35646;SDS011;28680;45.642;13.756;2023-02-28T15:06:06;9.63;;;6.32;;
35646;SDS011;28680;45.642;13.756;2023-02-28T15:08:42;11.25;;;7.15;;
35646;SDS011;28680;45.642;13.756;2023-02-28T15:11:19;12.27;;;6.93;;
35646;SDS011;28680;45.642;13.756;2023-02-28T15:21:42;10.68;;;7.47;;
35646;SDS011;28680;45.642;13.756;2023-02-28T15:26:50;15.05;;;10.02;;
35646;SDS011;28680;45.642;13.756;2023-02-28T15:29:25;10.85;;;6.65;;
35646;SDS011;28680;45.642;13.756;2023-02-28T15:32:00;10.93;;;6.80;;
35646;SDS011;28680;45.642;13.756;2023-02-28T15:34:37;11.88;;;7.72;;
35646;SDS011;28680;45.642;13.756;2023-02-28T15:40:04;12.20;;;7.80;;
35646;SDS011;28680;45.642;13.756;2023-02-28T15:42:35;12.30;;;7.05;;
35646;SDS011;28680;45.642;13.756;2023-02-28T15:45:01;11.60;;;7.22;;
35646;SDS011;28680;45.642;13.756;2023-02-28T15:47:27;12.35;;;7.57;;
35646;SDS011;28680;45.642;13.756;2023-02-28T15:49:59;13.02;;;7.95;;
35646;SDS011;28680;45.642;13.756;2023-02-28T15:55:21;13.50;;;8.75;;
35646;SDS011;28680;45.642;13.756;2023-02-28T15:57:56;10.40;;;7.10;;
35646;SDS011;28680;45.642;13.756;2023-02-28T16:02:54;13.23;;;8.00;;
35646;SDS011;28680;45.642;13.756;2023-02-28T16:05:30;13.32;;;8.40;;
35646;SDS011;28680;45.642;13.756;2023-02-28T16:08:00;13.18;;;9.05;;
35646;SDS011;28680;45.642;13.756;2023-02-28T16:10:38;14.15;;;8.27;;
35646;SDS011;28680;45.642;13.756;2023-02-28T16:13:04;12.80;;;8.55;;
35646;SDS011;28680;45.642;13.756;2023-02-28T16:15:32;15.10;;;8.95;;
35646;SDS011;28680;45.642;13.756;2023-02-28T16:18:07;14.05;;;8.77;;
35646;SDS011;28680;45.642;13.756;2023-02-28T16:20:37;14.30;;;8.65;;
35646;SDS011;28680;45.642;13.756;2023-02-28T16:23:03;14.65;;;9.32;;
35646;SDS011;28680;45.642;13.756;2023-02-28T16:25:36;13.23;;;8.82;;
35646;SDS011;28680;45.642;13.756;2023-02-28T16:28:12;16.50;;;9.25;;
35646;SDS011;28680;45.642;13.756;2023-02-28T16:30:45;13.30;;;9.25;;
35646;SDS011;28680;45.642;13.756;2023-02-28T16:33:11;17.67;;;9.90;;
35646;SDS011;28680;45.642;13.756;2023-02-28T16:35:37;13.10;;;9.00;;
35646;SDS011;28680;45.642;13.756;2023-02-28T16:38:03;17.27;;;9.35;;
35646;SDS011;28680;45.642;13.756;2023-02-28T16:40:29;15.02;;;9.88;;
35646;SDS011;28680;45.642;13.756;2023-02-28T16:43:00;16.55;;;9.52;;
35646;SDS011;28680;45.642;13.756;2023-02-28T16:45:34;17.08;;;9.48;;
35646;SDS011;28680;45.642;13.756;2023-02-28T16:48:01;13.73;;;8.50;;
35646;SDS011;28680;45.642;13.756;2023-02-28T16:50:27;14.02;;;9.52;;
35646;SDS011;28680;45.642;13.756;2023-02-28T16:52:55;15.90;;;8.40;;
35646;SDS011;28680;45.642;13.756;2023-02-28T16:55:22;13.10;;;8.45;;
35646;SDS011;28680;45.642;13.756;2023-02-28T16:57:50;13.85;;;9.45;;
35646;SDS011;28680;45.642;13.756;2023-02-28T17:00:20;15.05;;;9.80;;
35646;SDS011;28680;45.642;13.756;2023-02-28T17:02:47;14.52;;;9.68;;
35646;SDS011;28680;45.642;13.756;2023-02-28T17:05:13;17.17;;;10.02;;
35646;SDS011;28680;45.642;13.756;2023-02-28T17:07:40;17.42;;;9.13;;
35646;SDS011;28680;45.642;13.756;2023-02-28T17:10:17;17.00;;;10.68;;
35646;SDS011;28680;45.642;13.756;2023-02-28T17:12:49;17.75;;;9.52;;
35646;SDS011;28680;45.642;13.756;2023-02-28T17:15:16;20.10;;;10.20;;
35646;SDS011;28680;45.642;13.756;2023-02-28T17:17:44;18.80;;;10.52;;
35646;SDS011;28680;45.642;13.756;2023-02-28T17:20:16;15.60;;;9.05;;
35646;SDS011;28680;45.642;13.756;2023-02-28T17:22:51;15.20;;;10.00;;
35646;SDS011;28680;45.642;13.756;2023-02-28T17:25:21;13.45;;;8.85;;
35646;SDS011;28680;45.642;13.756;2023-02-28T17:27:48;11.18;;;6.80;;
35646;SDS011;28680;45.642;13.756;2023-02-28T17:30:17;14.75;;;8.32;;
35646;SDS011;28680;45.642;13.756;2023-02-28T17:32:48;12.85;;;8.70;;
35646;SDS011;28680;45.642;13.756;2023-02-28T17:35:13;14.00;;;8.95;;
35646;SDS011;28680;45.642;13.756;2023-02-28T17:37:40;15.15;;;9.63;;
35646;SDS011;28680;45.642;13.756;2023-02-28T17:40:09;14.52;;;8.68;;
35646;SDS011;28680;45.642;13.756;2023-02-28T17:42:42;15.88;;;9.18;;
35646;SDS011;28680;45.642;13.756;2023-02-28T17:45:09;14.60;;;9.05;;
35646;SDS011;28680;45.642;13.756;2023-02-28T17:47:36;14.80;;;9.30;;
35646;SDS011;28680;45.642;13.756;2023-02-28T17:50:02;15.63;;;9.73;;
35646;SDS011;28680;45.642;13.756;2023-02-28T17:52:29;13.70;;;7.95;;
35646;SDS011;28680;45.642;13.756;2023-02-28T17:54:55;16.40;;;9.35;;
35646;SDS011;28680;45.642;13.756;2023-02-28T17:57:20;13.02;;;8.43;;
35646;SDS011;28680;45.642;13.756;2023-02-28T17:59:46;14.10;;;9.35;;
35646;SDS011;28680;45.642;13.756;2023-02-28T18:02:12;14.85;;;9.85;;
35646;SDS011;28680;45.642;13.756;2023-02-28T18:04:39;13.02;;;8.27;;
35646;SDS011;28680;45.642;13.756;2023-02-28T18:07:09;13.85;;;9.75;;
35646;SDS011;28680;45.642;13.756;2023-02-28T18:09:36;11.80;;;8.60;;
35646;SDS011;28680;45.642;13.756;2023-02-28T18:12:02;16.33;;;9.93;;
35646;SDS011;28680;45.642;13.756;2023-02-28T18:14:28;14.27;;;9.10;;
35646;SDS011;28680;45.642;13.756;2023-02-28T18:16:54;15.52;;;10.02;;
35646;SDS011;28680;45.642;13.756;2023-02-28T18:19:22;18.48;;;10.50;;
35646;SDS011;28680;45.642;13.756;2023-02-28T18:21:49;16.25;;;9.60;;
35646;SDS011;28680;45.642;13.756;2023-02-28T18:24:17;14.75;;;9.15;;
35646;SDS011;28680;45.642;13.756;2023-02-28T18:26:45;12.40;;;7.88;;
35646;SDS011;28680;45.642;13.756;2023-02-28T18:29:16;12.27;;;7.85;;
35646;SDS011;28680;45.642;13.756;2023-02-28T18:31:53;17.10;;;8.98;;
35646;SDS011;28680;45.642;13.756;2023-02-28T18:34:20;16.35;;;9.38;;
35646;SDS011;28680;45.642;13.756;2023-02-28T18:36:48;20.02;;;8.73;;
35646;SDS011;28680;45.642;13.756;2023-02-28T18:39:15;14.85;;;8.82;;
35646;SDS011;28680;45.642;13.756;2023-02-28T18:41:42;12.82;;;8.25;;
35646;SDS011;28680;45.642;13.756;2023-02-28T18:44:08;15.98;;;9.50;;
35646;SDS011;28680;45.642;13.756;2023-02-28T18:46:34;15.15;;;9.25;;
35646;SDS011;28680;45.642;13.756;2023-02-28T18:49:00;13.80;;;8.18;;
35646;SDS011;28680;45.642;13.756;2023-02-28T18:51:26;13.55;;;8.85;;
35646;SDS011;28680;45.642;13.756;2023-02-28T18:53:53;17.50;;;9.35;;
35646;SDS011;28680;45.642;13.756;2023-02-28T18:56:20;16.13;;;9.63;;
35646;SDS011;28680;45.642;13.756;2023-02-28T18:58:49;13.70;;;8.63;;
35646;SDS011;28680;45.642;13.756;2023-02-28T19:03:55;14.23;;;9.35;;